sensor_id;sensor_type;location;lat;lon;timestamp;P1;durP1;ratioP1;P2;durP2;ratioP2
66628;SDS011;53532;53.084;6.352;2022-08-20T00:01:03;22.48;;;13.13;;
66628;SDS011;53532;53.084;6.352;2022-08-20T00:03:30;21.92;;;12.95;;
66628;SDS011;53532;53.084;6.352;2022-08-20T00:05:58;22.50;;;12.95;;
66628;SDS011;53532;53.084;6.352;2022-08-20T00:08:27;20.67;;;12.50;;
66628;SDS011;53532;53.084;6.352;2022-08-20T00:10:54;23.25;;;13.10;;
66628;SDS011;53532;53.084;6.352;2022-08-20T00:13:22;24.70;;;13.30;;
66628;SDS011;53532;53.084;6.352;2022-08-20T00:15:50;19.23;;;12.63;;
66628;SDS011;53532;53.084;6.352;2022-08-20T00:18:17;19.85;;;12.82;;
66628;SDS011;53532;53.084;6.352;2022-08-20T00:20:44;23.13;;;12.43;;
66628;SDS011;53532;53.084;6.352;2022-08-20T00:23:10;21.58;;;11.90;;
66628;SDS011;53532;53.084;6.352;2022-08-20T00:25:37;23.63;;;13.30;;
66628;SDS011;53532;53.084;6.352;2022-08-20T00:28:04;20.90;;;13.38;;
66628;SDS011;53532;53.084;6.352;2022-08-20T00:30:31;23.30;;;13.18;;
66628;SDS011;53532;53.084;6.352;2022-08-20T00:33:01;20.35;;;13.32;;
66628;SDS011;53532;53.084;6.352;2022-08-20T00:37:57;21.58;;;13.13;;
66628;SDS011;53532;53.084;6.352;2022-08-20T00:40:24;20.95;;;12.48;;
66628;SDS011;53532;53.084;6.352;2022-08-20T00:42:52;24.63;;;12.32;;
66628;SDS011;53532;53.084;6.352;2022-08-20T00:47:49;25.88;;;12.30;;
66628;SDS011;53532;53.084;6.352;2022-08-20T00:50:18;24.38;;;12.00;;
66628;SDS011;53532;53.084;6.352;2022-08-20T00:52:48;21.63;;;12.10;;
66628;SDS011;53532;53.084;6.352;2022-08-20T00:55:17;21.30;;;12.50;;
66628;SDS011;53532;53.084;6.352;2022-08-20T00:57:46;23.65;;;12.65;;
66628;SDS011;53532;53.084;6.352;2022-08-20T01:00:19;24.75;;;12.48;;
66628;SDS011;53532;53.084;6.352;2022-08-20T01:02:47;21.90;;;12.25;;
66628;SDS011;53532;53.084;6.352;2022-08-20T01:05:15;23.10;;;12.43;;
66628;SDS011;53532;53.084;6.352;2022-08-20T01:07:43;22.73;;;11.82;;
66628;SDS011;53532;53.084;6.352;2022-08-20T01:10:10;25.10;;;12.68;;
66628;SDS011;53532;53.084;6.352;2022-08-20T01:12:38;19.88;;;11.35;;
66628;SDS011;53532;53.084;6.352;2022-08-20T01:15:09;22.65;;;11.50;;
66628;SDS011;53532;53.084;6.352;2022-08-20T01:17:41;23.25;;;11.80;;
66628;SDS011;53532;53.084;6.352;2022-08-20T01:20:11;24.35;;;12.32;;
66628;SDS011;53532;53.084;6.352;2022-08-20T01:22:42;23.83;;;11.40;;
66628;SDS011;53532;53.084;6.352;2022-08-20T01:25:36;24.10;;;11.52;;
66628;SDS011;53532;53.084;6.352;2022-08-20T01:28:05;20.17;;;11.23;;
66628;SDS011;53532;53.084;6.352;2022-08-20T01:30:33;23.02;;;11.30;;
66628;SDS011;53532;53.084;6.352;2022-08-20T01:32:59;23.13;;;11.32;;
66628;SDS011;53532;53.084;6.352;2022-08-20T01:35:26;19.17;;;11.38;;
66628;SDS011;53532;53.084;6.352;2022-08-20T01:37:53;21.00;;;11.45;;
66628;SDS011;53532;53.084;6.352;2022-08-20T01:40:21;25.50;;;12.05;;
66628;SDS011;53532;53.084;6.352;2022-08-20T01:42:54;22.92;;;10.95;;
66628;SDS011;53532;53.084;6.352;2022-08-20T01:45:20;22.17;;;11.75;;
66628;SDS011;53532;53.084;6.352;2022-08-20T01:47:46;23.33;;;12.32;;
66628;SDS011;53532;53.084;6.352;2022-08-20T01:50:14;21.35;;;11.52;;
66628;SDS011;53532;53.084;6.352;2022-08-20T01:52:45;23.33;;;11.82;;
66628;SDS011;53532;53.084;6.352;2022-08-20T01:57:41;22.10;;;10.75;;
66628;SDS011;53532;53.084;6.352;2022-08-20T02:00:12;22.15;;;11.50;;
66628;SDS011;53532;53.084;6.352;2022-08-20T02:02:40;23.83;;;11.70;;
66628;SDS011;53532;53.084;6.352;2022-08-20T02:05:07;23.58;;;11.73;;
66628;SDS011;53532;53.084;6.352;2022-08-20T02:07:33;23.42;;;11.50;;
66628;SDS011;53532;53.084;6.352;2022-08-20T02:09:59;23.63;;;11.57;;
66628;SDS011;53532;53.084;6.352;2022-08-20T02:12:25;25.33;;;10.77;;
66628;SDS011;53532;53.084;6.352;2022-08-20T02:14:52;22.23;;;11.15;;
66628;SDS011;53532;53.084;6.352;2022-08-20T02:17:21;20.35;;;10.90;;
66628;SDS011;53532;53.084;6.352;2022-08-20T02:19:50;19.15;;;11.02;;
66628;SDS011;53532;53.084;6.352;2022-08-20T02:22:19;21.27;;;10.48;;
66628;SDS011;53532;53.084;6.352;2022-08-20T02:24:47;23.90;;;11.90;;
66628;SDS011;53532;53.084;6.352;2022-08-20T02:27:13;22.25;;;12.35;;
66628;SDS011;53532;53.084;6.352;2022-08-20T02:29:39;22.35;;;11.60;;
66628;SDS011;53532;53.084;6.352;2022-08-20T02:32:05;26.30;;;12.18;;
66628;SDS011;53532;53.084;6.352;2022-08-20T02:34:34;20.35;;;11.52;;
66628;SDS011;53532;53.084;6.352;2022-08-20T02:37:00;23.10;;;11.35;;
66628;SDS011;53532;53.084;6.352;2022-08-20T02:39:26;29.13;;;11.75;;
66628;SDS011;53532;53.084;6.352;2022-08-20T02:41:52;24.27;;;11.90;;
66628;SDS011;53532;53.084;6.352;2022-08-20T02:44:18;24.13;;;12.27;;
66628;SDS011;53532;53.084;6.352;2022-08-20T02:46:45;22.48;;;12.23;;
66628;SDS011;53532;53.084;6.352;2022-08-20T02:49:13;26.55;;;12.05;;
66628;SDS011;53532;53.084;6.352;2022-08-20T02:51:42;21.08;;;11.70;;
66628;SDS011;53532;53.084;6.352;2022-08-20T02:54:08;20.55;;;11.68;;
66628;SDS011;53532;53.084;6.352;2022-08-20T02:56:34;21.17;;;12.18;;
66628;SDS011;53532;53.084;6.352;2022-08-20T02:59:00;24.17;;;12.18;;
66628;SDS011;53532;53.084;6.352;2022-08-20T03:01:26;20.65;;;11.35;;
66628;SDS011;53532;53.084;6.352;2022-08-20T03:03:52;20.52;;;11.38;;
66628;SDS011;53532;53.084;6.352;2022-08-20T03:06:21;19.58;;;11.13;;
66628;SDS011;53532;53.084;6.352;2022-08-20T03:08:49;21.85;;;11.95;;
66628;SDS011;53532;53.084;6.352;2022-08-20T03:11:16;26.27;;;11.77;;
66628;SDS011;53532;53.084;6.352;2022-08-20T03:13:44;23.88;;;11.63;;
66628;SDS011;53532;53.084;6.352;2022-08-20T03:16:10;23.92;;;11.95;;
66628;SDS011;53532;53.084;6.352;2022-08-20T03:18:38;21.45;;;11.68;;
66628;SDS011;53532;53.084;6.352;2022-08-20T03:21:06;26.77;;;11.80;;
66628;SDS011;53532;53.084;6.352;2022-08-20T03:23:33;23.65;;;12.15;;
66628;SDS011;53532;53.084;6.352;2022-08-20T03:26:01;25.65;;;11.98;;
66628;SDS011;53532;53.084;6.352;2022-08-20T03:28:27;21.90;;;11.20;;
66628;SDS011;53532;53.084;6.352;2022-08-20T03:30:53;24.02;;;11.43;;
66628;SDS011;53532;53.084;6.352;2022-08-20T03:33:20;20.90;;;11.43;;
66628;SDS011;53532;53.084;6.352;2022-08-20T03:35:46;23.50;;;11.27;;
66628;SDS011;53532;53.084;6.352;2022-08-20T03:38:13;23.38;;;10.68;;
66628;SDS011;53532;53.084;6.352;2022-08-20T03:40:40;19.45;;;10.52;;
66628;SDS011;53532;53.084;6.352;2022-08-20T03:43:08;20.88;;;11.05;;
66628;SDS011;53532;53.084;6.352;2022-08-20T03:45:35;18.75;;;10.05;;
66628;SDS011;53532;53.084;6.352;2022-08-20T03:48:02;17.95;;;10.20;;
66628;SDS011;53532;53.084;6.352;2022-08-20T03:50:30;18.13;;;10.38;;
66628;SDS011;53532;53.084;6.352;2022-08-20T03:52:57;18.02;;;9.40;;
66628;SDS011;53532;53.084;6.352;2022-08-20T03:55:24;17.95;;;9.68;;
66628;SDS011;53532;53.084;6.352;2022-08-20T03:57:51;18.83;;;9.30;;
66628;SDS011;53532;53.084;6.352;2022-08-20T04:00:22;22.08;;;9.40;;
66628;SDS011;53532;53.084;6.352;2022-08-20T04:02:51;22.27;;;9.57;;
66628;SDS011;53532;53.084;6.352;2022-08-20T04:05:17;20.33;;;9.70;;
66628;SDS011;53532;53.084;6.352;2022-08-20T04:07:43;21.02;;;9.55;;
66628;SDS011;53532;53.084;6.352;2022-08-20T04:10:09;19.02;;;10.05;;
66628;SDS011;53532;53.084;6.352;2022-08-20T04:12:36;18.65;;;9.63;;
66628;SDS011;53532;53.084;6.352;2022-08-20T04:15:06;24.55;;;9.57;;
66628;SDS011;53532;53.084;6.352;2022-08-20T04:17:35;16.95;;;9.68;;
66628;SDS011;53532;53.084;6.352;2022-08-20T04:20:02;22.73;;;9.55;;
66628;SDS011;53532;53.084;6.352;2022-08-20T04:22:28;19.67;;;8.98;;
66628;SDS011;53532;53.084;6.352;2022-08-20T04:24:54;25.23;;;9.40;;
66628;SDS011;53532;53.084;6.352;2022-08-20T04:27:20;16.15;;;9.02;;
66628;SDS011;53532;53.084;6.352;2022-08-20T04:29:46;18.15;;;8.82;;
66628;SDS011;53532;53.084;6.352;2022-08-20T04:32:11;19.08;;;8.98;;
66628;SDS011;53532;53.084;6.352;2022-08-20T04:34:39;23.73;;;9.65;;
66628;SDS011;53532;53.084;6.352;2022-08-20T04:37:05;19.15;;;9.30;;
66628;SDS011;53532;53.084;6.352;2022-08-20T04:39:31;18.98;;;9.30;;
66628;SDS011;53532;53.084;6.352;2022-08-20T04:41:57;19.27;;;9.40;;
66628;SDS011;53532;53.084;6.352;2022-08-20T04:44:23;19.80;;;9.15;;
66628;SDS011;53532;53.084;6.352;2022-08-20T04:46:49;18.42;;;9.07;;
66628;SDS011;53532;53.084;6.352;2022-08-20T04:49:15;19.50;;;8.68;;
66628;SDS011;53532;53.084;6.352;2022-08-20T04:51:42;20.95;;;8.73;;
66628;SDS011;53532;53.084;6.352;2022-08-20T04:54:08;22.63;;;8.70;;
66628;SDS011;53532;53.084;6.352;2022-08-20T04:56:34;21.85;;;8.85;;
66628;SDS011;53532;53.084;6.352;2022-08-20T04:59:04;18.33;;;8.50;;
66628;SDS011;53532;53.084;6.352;2022-08-20T05:01:31;17.80;;;7.50;;
66628;SDS011;53532;53.084;6.352;2022-08-20T05:03:57;15.98;;;7.80;;
66628;SDS011;53532;53.084;6.352;2022-08-20T05:06:24;20.60;;;8.63;;
66628;SDS011;53532;53.084;6.352;2022-08-20T05:08:54;15.10;;;7.65;;
66628;SDS011;53532;53.084;6.352;2022-08-20T05:11:22;20.02;;;7.93;;
66628;SDS011;53532;53.084;6.352;2022-08-20T05:13:48;19.65;;;7.40;;
66628;SDS011;53532;53.084;6.352;2022-08-20T05:16:17;15.32;;;6.97;;
66628;SDS011;53532;53.084;6.352;2022-08-20T05:18:43;17.92;;;7.38;;
66628;SDS011;53532;53.084;6.352;2022-08-20T05:21:10;16.60;;;7.20;;
66628;SDS011;53532;53.084;6.352;2022-08-20T05:23:38;18.67;;;7.93;;
66628;SDS011;53532;53.084;6.352;2022-08-20T05:26:08;16.42;;;7.22;;
66628;SDS011;53532;53.084;6.352;2022-08-20T05:28:35;15.48;;;7.60;;
66628;SDS011;53532;53.084;6.352;2022-08-20T05:31:02;18.38;;;7.18;;
66628;SDS011;53532;53.084;6.352;2022-08-20T05:33:31;18.85;;;7.22;;
66628;SDS011;53532;53.084;6.352;2022-08-20T05:35:56;14.20;;;7.90;;
66628;SDS011;53532;53.084;6.352;2022-08-20T05:38:23;18.48;;;7.82;;
66628;SDS011;53532;53.084;6.352;2022-08-20T05:40:50;16.58;;;7.60;;
66628;SDS011;53532;53.084;6.352;2022-08-20T05:43:18;17.10;;;7.22;;
66628;SDS011;53532;53.084;6.352;2022-08-20T05:45:44;16.40;;;7.45;;
66628;SDS011;53532;53.084;6.352;2022-08-20T05:48:16;16.67;;;7.00;;
66628;SDS011;53532;53.084;6.352;2022-08-20T05:50:43;18.65;;;7.50;;
66628;SDS011;53532;53.084;6.352;2022-08-20T05:53:10;16.27;;;7.30;;
66628;SDS011;53532;53.084;6.352;2022-08-20T05:55:37;16.90;;;7.00;;
66628;SDS011;53532;53.084;6.352;2022-08-20T05:58:04;18.13;;;7.10;;
66628;SDS011;53532;53.084;6.352;2022-08-20T06:00:34;17.83;;;6.70;;
66628;SDS011;53532;53.084;6.352;2022-08-20T06:03:01;15.98;;;6.70;;
66628;SDS011;53532;53.084;6.352;2022-08-20T06:05:45;18.70;;;6.97;;
66628;SDS011;53532;53.084;6.352;2022-08-20T06:08:11;18.58;;;6.63;;
66628;SDS011;53532;53.084;6.352;2022-08-20T06:10:38;11.90;;;5.03;;
66628;SDS011;53532;53.084;6.352;2022-08-20T06:13:05;13.07;;;4.80;;
66628;SDS011;53532;53.084;6.352;2022-08-20T06:15:32;16.33;;;4.60;;
66628;SDS011;53532;53.084;6.352;2022-08-20T06:17:59;12.98;;;4.18;;
66628;SDS011;53532;53.084;6.352;2022-08-20T06:20:25;12.18;;;4.45;;
66628;SDS011;53532;53.084;6.352;2022-08-20T06:22:53;11.23;;;4.10;;
66628;SDS011;53532;53.084;6.352;2022-08-20T06:25:18;13.23;;;4.85;;
66628;SDS011;53532;53.084;6.352;2022-08-20T06:27:44;10.95;;;4.40;;
66628;SDS011;53532;53.084;6.352;2022-08-20T06:30:12;15.65;;;4.50;;
66628;SDS011;53532;53.084;6.352;2022-08-20T06:32:41;13.38;;;4.72;;
66628;SDS011;53532;53.084;6.352;2022-08-20T06:35:07;13.43;;;4.85;;
66628;SDS011;53532;53.084;6.352;2022-08-20T06:37:35;14.75;;;4.80;;
66628;SDS011;53532;53.084;6.352;2022-08-20T06:40:04;13.70;;;4.90;;
66628;SDS011;53532;53.084;6.352;2022-08-20T06:42:32;11.38;;;4.35;;
66628;SDS011;53532;53.084;6.352;2022-08-20T06:44:59;14.38;;;4.40;;
66628;SDS011;53532;53.084;6.352;2022-08-20T06:47:29;13.32;;;4.47;;
66628;SDS011;53532;53.084;6.352;2022-08-20T06:49:56;11.00;;;4.22;;
66628;SDS011;53532;53.084;6.352;2022-08-20T06:52:22;12.77;;;5.07;;
66628;SDS011;53532;53.084;6.352;2022-08-20T06:54:48;15.13;;;4.85;;
66628;SDS011;53532;53.084;6.352;2022-08-20T06:57:14;14.68;;;5.03;;
66628;SDS011;53532;53.084;6.352;2022-08-20T06:59:41;13.90;;;5.20;;
66628;SDS011;53532;53.084;6.352;2022-08-20T07:02:07;15.68;;;4.97;;
66628;SDS011;53532;53.084;6.352;2022-08-20T07:04:36;14.07;;;4.43;;
66628;SDS011;53532;53.084;6.352;2022-08-20T07:07:03;13.32;;;3.65;;
66628;SDS011;53532;53.084;6.352;2022-08-20T07:09:30;10.45;;;2.78;;
66628;SDS011;53532;53.084;6.352;2022-08-20T07:11:56;11.45;;;3.03;;
66628;SDS011;53532;53.084;6.352;2022-08-20T07:14:22;13.05;;;3.20;;
66628;SDS011;53532;53.084;6.352;2022-08-20T07:16:48;13.38;;;2.85;;
66628;SDS011;53532;53.084;6.352;2022-08-20T07:19:14;14.27;;;2.92;;
66628;SDS011;53532;53.084;6.352;2022-08-20T07:21:40;11.13;;;2.88;;
66628;SDS011;53532;53.084;6.352;2022-08-20T07:24:08;11.55;;;2.63;;
66628;SDS011;53532;53.084;6.352;2022-08-20T07:26:34;9.68;;;2.80;;
66628;SDS011;53532;53.084;6.352;2022-08-20T07:29:00;9.60;;;2.63;;
66628;SDS011;53532;53.084;6.352;2022-08-20T07:31:25;10.60;;;2.60;;
66628;SDS011;53532;53.084;6.352;2022-08-20T07:34:10;11.75;;;2.67;;
66628;SDS011;53532;53.084;6.352;2022-08-20T07:36:36;10.25;;;2.60;;
66628;SDS011;53532;53.084;6.352;2022-08-20T07:39:02;10.35;;;2.67;;
66628;SDS011;53532;53.084;6.352;2022-08-20T07:41:31;10.75;;;2.25;;
66628;SDS011;53532;53.084;6.352;2022-08-20T07:43:57;10.82;;;2.35;;
66628;SDS011;53532;53.084;6.352;2022-08-20T07:46:23;10.02;;;2.35;;
66628;SDS011;53532;53.084;6.352;2022-08-20T07:48:49;10.73;;;2.10;;
66628;SDS011;53532;53.084;6.352;2022-08-20T07:51:16;8.80;;;2.25;;
66628;SDS011;53532;53.084;6.352;2022-08-20T07:53:43;9.25;;;2.15;;
66628;SDS011;53532;53.084;6.352;2022-08-20T07:56:11;10.43;;;2.25;;
66628;SDS011;53532;53.084;6.352;2022-08-20T07:58:41;13.35;;;2.42;;
66628;SDS011;53532;53.084;6.352;2022-08-20T08:01:13;10.25;;;1.90;;
66628;SDS011;53532;53.084;6.352;2022-08-20T08:03:40;12.13;;;2.17;;
66628;SDS011;53532;53.084;6.352;2022-08-20T08:06:06;6.82;;;1.90;;
66628;SDS011;53532;53.084;6.352;2022-08-20T08:08:33;15.75;;;2.22;;
66628;SDS011;53532;53.084;6.352;2022-08-20T08:11:02;14.75;;;2.67;;
66628;SDS011;53532;53.084;6.352;2022-08-20T08:13:30;14.73;;;2.70;;
66628;SDS011;53532;53.084;6.352;2022-08-20T08:16:01;8.88;;;2.20;;
66628;SDS011;53532;53.084;6.352;2022-08-20T08:18:29;12.05;;;2.42;;
66628;SDS011;53532;53.084;6.352;2022-08-20T08:21:01;8.65;;;2.10;;
66628;SDS011;53532;53.084;6.352;2022-08-20T08:23:27;7.20;;;1.75;;
66628;SDS011;53532;53.084;6.352;2022-08-20T08:25:53;9.40;;;1.85;;
66628;SDS011;53532;53.084;6.352;2022-08-20T08:28:19;13.10;;;2.85;;
66628;SDS011;53532;53.084;6.352;2022-08-20T08:30:46;8.38;;;1.70;;
66628;SDS011;53532;53.084;6.352;2022-08-20T08:33:17;9.50;;;1.90;;
66628;SDS011;53532;53.084;6.352;2022-08-20T08:35:55;9.68;;;2.10;;
66628;SDS011;53532;53.084;6.352;2022-08-20T08:38:23;7.63;;;1.85;;
66628;SDS011;53532;53.084;6.352;2022-08-20T08:40:50;8.13;;;2.13;;
66628;SDS011;53532;53.084;6.352;2022-08-20T08:43:18;9.60;;;1.80;;
66628;SDS011;53532;53.084;6.352;2022-08-20T08:45:46;7.53;;;1.88;;
66628;SDS011;53532;53.084;6.352;2022-08-20T08:48:20;8.82;;;1.83;;
66628;SDS011;53532;53.084;6.352;2022-08-20T08:50:50;8.52;;;1.90;;
66628;SDS011;53532;53.084;6.352;2022-08-20T08:53:17;8.27;;;1.85;;
66628;SDS011;53532;53.084;6.352;2022-08-20T08:58:14;10.23;;;1.85;;
66628;SDS011;53532;53.084;6.352;2022-08-20T09:00:40;10.57;;;2.05;;
66628;SDS011;53532;53.084;6.352;2022-08-20T09:03:07;8.70;;;1.88;;
66628;SDS011;53532;53.084;6.352;2022-08-20T09:05:38;11.88;;;2.10;;
66628;SDS011;53532;53.084;6.352;2022-08-20T09:08:09;9.75;;;1.85;;
66628;SDS011;53532;53.084;6.352;2022-08-20T09:10:39;9.25;;;2.00;;
66628;SDS011;53532;53.084;6.352;2022-08-20T09:13:06;9.98;;;2.03;;
66628;SDS011;53532;53.084;6.352;2022-08-20T09:15:32;8.95;;;1.58;;
66628;SDS011;53532;53.084;6.352;2022-08-20T09:17:58;9.70;;;2.10;;
66628;SDS011;53532;53.084;6.352;2022-08-20T09:20:24;7.40;;;1.63;;
66628;SDS011;53532;53.084;6.352;2022-08-20T09:22:51;6.38;;;1.52;;
66628;SDS011;53532;53.084;6.352;2022-08-20T09:25:18;7.70;;;1.70;;
66628;SDS011;53532;53.084;6.352;2022-08-20T09:27:44;9.77;;;1.95;;
66628;SDS011;53532;53.084;6.352;2022-08-20T09:30:10;7.85;;;1.80;;
66628;SDS011;53532;53.084;6.352;2022-08-20T09:32:37;8.95;;;1.88;;
66628;SDS011;53532;53.084;6.352;2022-08-20T09:35:03;8.02;;;1.77;;
66628;SDS011;53532;53.084;6.352;2022-08-20T09:37:30;8.80;;;2.15;;
66628;SDS011;53532;53.084;6.352;2022-08-20T09:39:58;7.50;;;1.67;;
66628;SDS011;53532;53.084;6.352;2022-08-20T09:42:25;7.65;;;1.92;;
66628;SDS011;53532;53.084;6.352;2022-08-20T09:44:52;7.95;;;1.90;;
66628;SDS011;53532;53.084;6.352;2022-08-20T09:47:18;10.15;;;1.80;;
66628;SDS011;53532;53.084;6.352;2022-08-20T09:49:44;8.70;;;1.88;;
66628;SDS011;53532;53.084;6.352;2022-08-20T09:52:17;7.10;;;1.83;;
66628;SDS011;53532;53.084;6.352;2022-08-20T09:54:45;8.10;;;2.10;;
66628;SDS011;53532;53.084;6.352;2022-08-20T09:57:13;7.53;;;2.13;;
66628;SDS011;53532;53.084;6.352;2022-08-20T09:59:40;8.45;;;2.20;;
66628;SDS011;53532;53.084;6.352;2022-08-20T10:02:06;7.47;;;1.90;;
66628;SDS011;53532;53.084;6.352;2022-08-20T10:04:31;7.57;;;2.10;;
66628;SDS011;53532;53.084;6.352;2022-08-20T10:06:57;8.52;;;2.28;;
66628;SDS011;53532;53.084;6.352;2022-08-20T10:09:23;6.70;;;1.90;;
66628;SDS011;53532;53.084;6.352;2022-08-20T10:11:49;7.68;;;2.20;;
66628;SDS011;53532;53.084;6.352;2022-08-20T10:14:16;8.30;;;2.25;;
66628;SDS011;53532;53.084;6.352;2022-08-20T10:16:42;13.90;;;2.10;;
66628;SDS011;53532;53.084;6.352;2022-08-20T10:19:08;9.70;;;2.38;;
66628;SDS011;53532;53.084;6.352;2022-08-20T10:21:34;10.00;;;2.30;;
66628;SDS011;53532;53.084;6.352;2022-08-20T10:23:59;7.70;;;2.15;;
66628;SDS011;53532;53.084;6.352;2022-08-20T10:26:25;6.00;;;2.00;;
66628;SDS011;53532;53.084;6.352;2022-08-20T10:28:51;7.63;;;2.03;;
66628;SDS011;53532;53.084;6.352;2022-08-20T10:31:18;8.27;;;2.33;;
66628;SDS011;53532;53.084;6.352;2022-08-20T10:33:44;6.18;;;2.20;;
66628;SDS011;53532;53.084;6.352;2022-08-20T10:36:11;6.38;;;2.03;;
66628;SDS011;53532;53.084;6.352;2022-08-20T10:38:39;5.80;;;2.10;;
66628;SDS011;53532;53.084;6.352;2022-08-20T10:41:05;10.63;;;2.08;;
66628;SDS011;53532;53.084;6.352;2022-08-20T10:43:31;7.75;;;2.30;;
66628;SDS011;53532;53.084;6.352;2022-08-20T10:45:57;10.23;;;2.40;;
66628;SDS011;53532;53.084;6.352;2022-08-20T10:48:24;7.45;;;2.17;;
66628;SDS011;53532;53.084;6.352;2022-08-20T10:50:50;10.02;;;2.20;;
66628;SDS011;53532;53.084;6.352;2022-08-20T10:53:16;6.82;;;2.00;;
66628;SDS011;53532;53.084;6.352;2022-08-20T10:55:42;6.63;;;1.98;;
66628;SDS011;53532;53.084;6.352;2022-08-20T10:58:08;7.65;;;2.40;;
66628;SDS011;53532;53.084;6.352;2022-08-20T11:00:35;9.95;;;2.22;;
66628;SDS011;53532;53.084;6.352;2022-08-20T11:03:01;6.78;;;1.77;;
66628;SDS011;53532;53.084;6.352;2022-08-20T11:05:28;9.38;;;2.20;;
66628;SDS011;53532;53.084;6.352;2022-08-20T11:07:54;7.15;;;2.00;;
66628;SDS011;53532;53.084;6.352;2022-08-20T11:10:20;9.02;;;1.90;;
66628;SDS011;53532;53.084;6.352;2022-08-20T11:12:46;7.70;;;1.88;;
66628;SDS011;53532;53.084;6.352;2022-08-20T11:15:12;8.05;;;2.05;;
66628;SDS011;53532;53.084;6.352;2022-08-20T11:17:40;7.93;;;1.85;;
66628;SDS011;53532;53.084;6.352;2022-08-20T11:20:08;7.82;;;2.00;;
66628;SDS011;53532;53.084;6.352;2022-08-20T11:22:36;8.98;;;2.25;;
66628;SDS011;53532;53.084;6.352;2022-08-20T11:25:02;8.80;;;2.70;;
66628;SDS011;53532;53.084;6.352;2022-08-20T11:27:29;9.40;;;1.98;;
66628;SDS011;53532;53.084;6.352;2022-08-20T11:29:57;8.02;;;2.03;;
66628;SDS011;53532;53.084;6.352;2022-08-20T11:32:23;12.00;;;2.30;;
66628;SDS011;53532;53.084;6.352;2022-08-20T11:34:49;8.38;;;1.92;;
66628;SDS011;53532;53.084;6.352;2022-08-20T11:37:16;7.60;;;2.17;;
66628;SDS011;53532;53.084;6.352;2022-08-20T11:39:45;9.32;;;2.05;;
66628;SDS011;53532;53.084;6.352;2022-08-20T11:42:11;8.65;;;1.88;;
66628;SDS011;53532;53.084;6.352;2022-08-20T11:44:37;8.82;;;2.40;;
66628;SDS011;53532;53.084;6.352;2022-08-20T11:47:03;7.03;;;2.03;;
66628;SDS011;53532;53.084;6.352;2022-08-20T11:49:30;8.25;;;2.10;;
66628;SDS011;53532;53.084;6.352;2022-08-20T11:51:57;10.23;;;2.33;;
66628;SDS011;53532;53.084;6.352;2022-08-20T11:54:23;7.60;;;2.03;;
66628;SDS011;53532;53.084;6.352;2022-08-20T11:56:50;7.93;;;2.10;;
66628;SDS011;53532;53.084;6.352;2022-08-20T11:59:16;9.15;;;2.20;;
66628;SDS011;53532;53.084;6.352;2022-08-20T12:01:42;11.70;;;2.22;;
66628;SDS011;53532;53.084;6.352;2022-08-20T12:04:08;10.68;;;2.22;;
66628;SDS011;53532;53.084;6.352;2022-08-20T12:06:34;8.57;;;2.30;;
66628;SDS011;53532;53.084;6.352;2022-08-20T12:08:59;7.05;;;2.00;;
66628;SDS011;53532;53.084;6.352;2022-08-20T12:11:26;9.02;;;1.98;;
66628;SDS011;53532;53.084;6.352;2022-08-20T12:13:53;8.73;;;1.95;;
66628;SDS011;53532;53.084;6.352;2022-08-20T12:16:19;8.73;;;2.08;;
66628;SDS011;53532;53.084;6.352;2022-08-20T12:18:45;7.13;;;1.80;;
66628;SDS011;53532;53.084;6.352;2022-08-20T12:21:11;9.85;;;2.53;;
66628;SDS011;53532;53.084;6.352;2022-08-20T12:23:37;9.70;;;2.17;;
66628;SDS011;53532;53.084;6.352;2022-08-20T12:26:03;8.65;;;2.30;;
66628;SDS011;53532;53.084;6.352;2022-08-20T12:28:30;9.27;;;2.00;;
66628;SDS011;53532;53.084;6.352;2022-08-20T12:30:58;7.78;;;2.10;;
66628;SDS011;53532;53.084;6.352;2022-08-20T12:33:24;8.00;;;2.35;;
66628;SDS011;53532;53.084;6.352;2022-08-20T12:35:50;9.07;;;2.30;;
66628;SDS011;53532;53.084;6.352;2022-08-20T12:38:16;12.45;;;2.17;;
66628;SDS011;53532;53.084;6.352;2022-08-20T12:40:41;6.85;;;2.10;;
66628;SDS011;53532;53.084;6.352;2022-08-20T12:43:07;7.82;;;2.25;;
66628;SDS011;53532;53.084;6.352;2022-08-20T12:45:33;8.25;;;1.90;;
66628;SDS011;53532;53.084;6.352;2022-08-20T12:48:02;9.90;;;2.50;;
66628;SDS011;53532;53.084;6.352;2022-08-20T12:50:30;8.32;;;2.08;;
66628;SDS011;53532;53.084;6.352;2022-08-20T12:52:57;8.13;;;1.90;;
66628;SDS011;53532;53.084;6.352;2022-08-20T12:55:23;8.38;;;2.15;;
66628;SDS011;53532;53.084;6.352;2022-08-20T12:57:50;5.60;;;1.77;;
66628;SDS011;53532;53.084;6.352;2022-08-20T13:00:18;8.35;;;2.00;;
66628;SDS011;53532;53.084;6.352;2022-08-20T13:02:46;7.20;;;2.20;;
66628;SDS011;53532;53.084;6.352;2022-08-20T13:05:14;6.75;;;1.90;;
66628;SDS011;53532;53.084;6.352;2022-08-20T13:07:41;9.27;;;2.15;;
66628;SDS011;53532;53.084;6.352;2022-08-20T13:10:08;8.52;;;2.30;;
66628;SDS011;53532;53.084;6.352;2022-08-20T13:12:35;8.38;;;2.28;;
66628;SDS011;53532;53.084;6.352;2022-08-20T13:15:01;9.27;;;2.55;;
66628;SDS011;53532;53.084;6.352;2022-08-20T13:17:27;6.80;;;1.83;;
66628;SDS011;53532;53.084;6.352;2022-08-20T13:19:53;7.00;;;2.20;;
66628;SDS011;53532;53.084;6.352;2022-08-20T13:22:20;8.48;;;2.40;;
66628;SDS011;53532;53.084;6.352;2022-08-20T13:24:46;8.73;;;2.38;;
66628;SDS011;53532;53.084;6.352;2022-08-20T13:27:13;7.03;;;2.40;;
66628;SDS011;53532;53.084;6.352;2022-08-20T13:29:44;6.95;;;2.47;;
66628;SDS011;53532;53.084;6.352;2022-08-20T13:32:10;7.78;;;2.42;;
66628;SDS011;53532;53.084;6.352;2022-08-20T13:34:36;7.75;;;2.30;;
66628;SDS011;53532;53.084;6.352;2022-08-20T13:37:08;7.50;;;2.03;;
66628;SDS011;53532;53.084;6.352;2022-08-20T13:39:38;6.95;;;2.20;;
66628;SDS011;53532;53.084;6.352;2022-08-20T13:42:04;8.48;;;2.13;;
66628;SDS011;53532;53.084;6.352;2022-08-20T13:44:30;7.25;;;2.50;;
66628;SDS011;53532;53.084;6.352;2022-08-20T13:46:56;8.80;;;2.20;;
66628;SDS011;53532;53.084;6.352;2022-08-20T13:49:22;8.07;;;2.28;;
66628;SDS011;53532;53.084;6.352;2022-08-20T13:51:48;8.43;;;2.40;;
66628;SDS011;53532;53.084;6.352;2022-08-20T13:54:14;8.73;;;2.72;;
66628;SDS011;53532;53.084;6.352;2022-08-20T13:56:41;6.75;;;2.28;;
66628;SDS011;53532;53.084;6.352;2022-08-20T13:59:07;8.70;;;2.35;;
66628;SDS011;53532;53.084;6.352;2022-08-20T14:01:32;9.88;;;2.67;;
66628;SDS011;53532;53.084;6.352;2022-08-20T14:03:58;10.25;;;2.60;;
66628;SDS011;53532;53.084;6.352;2022-08-20T14:06:24;7.60;;;2.20;;
66628;SDS011;53532;53.084;6.352;2022-08-20T14:08:50;8.88;;;2.58;;
66628;SDS011;53532;53.084;6.352;2022-08-20T14:11:16;8.80;;;2.47;;
66628;SDS011;53532;53.084;6.352;2022-08-20T14:13:43;8.50;;;2.30;;
66628;SDS011;53532;53.084;6.352;2022-08-20T14:16:09;7.88;;;2.40;;
66628;SDS011;53532;53.084;6.352;2022-08-20T14:18:35;7.60;;;2.30;;
66628;SDS011;53532;53.084;6.352;2022-08-20T14:21:00;9.27;;;2.40;;
66628;SDS011;53532;53.084;6.352;2022-08-20T14:23:26;10.20;;;2.30;;
66628;SDS011;53532;53.084;6.352;2022-08-20T14:25:52;8.63;;;2.10;;
66628;SDS011;53532;53.084;6.352;2022-08-20T14:28:19;8.40;;;2.33;;
66628;SDS011;53532;53.084;6.352;2022-08-20T14:30:47;6.50;;;2.00;;
66628;SDS011;53532;53.084;6.352;2022-08-20T14:33:14;9.15;;;2.30;;
66628;SDS011;53532;53.084;6.352;2022-08-20T14:35:40;7.70;;;2.20;;
66628;SDS011;53532;53.084;6.352;2022-08-20T14:38:06;8.32;;;2.45;;
66628;SDS011;53532;53.084;6.352;2022-08-20T14:40:33;9.45;;;2.40;;
66628;SDS011;53532;53.084;6.352;2022-08-20T14:42:59;8.73;;;2.33;;
66628;SDS011;53532;53.084;6.352;2022-08-20T14:45:25;7.55;;;2.40;;